sensor_id;sensor_type;location;lat;lon;timestamp;P1;durP1;ratioP1;P2;durP2;ratioP2
27983;SDS011;15317;50.360;8.726;2023-06-10T00:01:53;12.00;;;11.10;;
27983;SDS011;15317;50.360;8.726;2023-06-10T00:07:03;11.67;;;10.67;;
27983;SDS011;15317;50.360;8.726;2023-06-10T00:12:10;12.53;;;11.63;;
27983;SDS011;15317;50.360;8.726;2023-06-10T00:17:15;11.60;;;10.70;;
27983;SDS011;15317;50.360;8.726;2023-06-10T00:22:20;12.10;;;11.20;;
27983;SDS011;15317;50.360;8.726;2023-06-10T00:27:24;12.27;;;11.27;;
27983;SDS011;15317;50.360;8.726;2023-06-10T00:32:33;12.40;;;11.43;;
27983;SDS011;15317;50.360;8.726;2023-06-10T00:37:38;11.77;;;10.97;;
27983;SDS011;15317;50.360;8.726;2023-06-10T00:42:41;12.33;;;11.43;;
27983;SDS011;15317;50.360;8.726;2023-06-10T00:47:45;12.13;;;11.23;;
27983;SDS011;15317;50.360;8.726;2023-06-10T00:52:50;12.27;;;11.27;;
27983;SDS011;15317;50.360;8.726;2023-06-10T00:57:56;12.30;;;11.30;;
27983;SDS011;15317;50.360;8.726;2023-06-10T01:02:59;12.40;;;11.50;;
27983;SDS011;15317;50.360;8.726;2023-06-10T01:08:07;12.57;;;11.57;;
27983;SDS011;15317;50.360;8.726;2023-06-10T01:13:15;13.10;;;11.90;;
27983;SDS011;15317;50.360;8.726;2023-06-10T01:18:19;11.97;;;11.07;;
27983;SDS011;15317;50.360;8.726;2023-06-10T01:23:25;12.10;;;11.10;;
27983;SDS011;15317;50.360;8.726;2023-06-10T01:28:30;12.40;;;11.50;;
27983;SDS011;15317;50.360;8.726;2023-06-10T01:33:41;12.50;;;11.50;;
27983;SDS011;15317;50.360;8.726;2023-06-10T01:38:48;12.17;;;11.27;;
27983;SDS011;15317;50.360;8.726;2023-06-10T01:43:53;11.60;;;10.63;;
27983;SDS011;15317;50.360;8.726;2023-06-10T01:48:57;11.67;;;10.87;;
27983;SDS011;15317;50.360;8.726;2023-06-10T01:54:01;11.60;;;10.80;;
27983;SDS011;15317;50.360;8.726;2023-06-10T01:59:05;11.97;;;10.87;;
27983;SDS011;15317;50.360;8.726;2023-06-10T02:04:08;11.57;;;10.57;;
27983;SDS011;15317;50.360;8.726;2023-06-10T02:09:13;11.30;;;10.43;;
27983;SDS011;15317;50.360;8.726;2023-06-10T02:14:16;10.63;;;9.90;;
27983;SDS011;15317;50.360;8.726;2023-06-10T02:19:19;10.50;;;9.70;;
27983;SDS011;15317;50.360;8.726;2023-06-10T02:24:25;11.63;;;10.53;;
27983;SDS011;15317;50.360;8.726;2023-06-10T02:29:28;11.97;;;11.07;;
27983;SDS011;15317;50.360;8.726;2023-06-10T02:34:31;10.93;;;10.00;;
27983;SDS011;15317;50.360;8.726;2023-06-10T02:39:36;12.03;;;11.03;;
27983;SDS011;15317;50.360;8.726;2023-06-10T02:44:39;10.97;;;10.13;;
27983;SDS011;15317;50.360;8.726;2023-06-10T02:49:43;11.30;;;10.50;;
27983;SDS011;15317;50.360;8.726;2023-06-10T02:54:47;11.60;;;10.70;;
27983;SDS011;15317;50.360;8.726;2023-06-10T02:59:50;11.07;;;10.23;;
27983;SDS011;15317;50.360;8.726;2023-06-10T03:04:55;11.23;;;10.43;;
27983;SDS011;15317;50.360;8.726;2023-06-10T03:10:00;10.80;;;10.03;;
27983;SDS011;15317;50.360;8.726;2023-06-10T03:15:03;10.97;;;10.20;;
27983;SDS011;15317;50.360;8.726;2023-06-10T03:20:08;10.30;;;9.60;;
27983;SDS011;15317;50.360;8.726;2023-06-10T03:25:14;11.40;;;10.50;;
27983;SDS011;15317;50.360;8.726;2023-06-10T03:30:18;10.60;;;9.90;;
27983;SDS011;15317;50.360;8.726;2023-06-10T03:35:21;10.60;;;9.77;;
27983;SDS011;15317;50.360;8.726;2023-06-10T03:40:26;11.07;;;10.23;;
27983;SDS011;15317;50.360;8.726;2023-06-10T03:45:29;10.73;;;9.93;;
27983;SDS011;15317;50.360;8.726;2023-06-10T03:50:33;10.73;;;9.93;;
27983;SDS011;15317;50.360;8.726;2023-06-10T03:55:39;11.63;;;10.57;;
27983;SDS011;15317;50.360;8.726;2023-06-10T04:00:43;10.40;;;9.60;;
27983;SDS011;15317;50.360;8.726;2023-06-10T04:05:47;11.47;;;10.57;;
27983;SDS011;15317;50.360;8.726;2023-06-10T04:10:52;10.47;;;9.77;;
27983;SDS011;15317;50.360;8.726;2023-06-10T04:15:56;10.50;;;9.73;;
27983;SDS011;15317;50.360;8.726;2023-06-10T04:21:00;10.33;;;9.53;;
27983;SDS011;15317;50.360;8.726;2023-06-10T04:26:04;11.40;;;10.50;;
27983;SDS011;15317;50.360;8.726;2023-06-10T04:31:09;10.03;;;9.23;;
27983;SDS011;15317;50.360;8.726;2023-06-10T04:36:12;10.87;;;9.97;;
27983;SDS011;15317;50.360;8.726;2023-06-10T04:41:17;10.23;;;9.43;;
27983;SDS011;15317;50.360;8.726;2023-06-10T04:46:21;10.63;;;9.83;;
27983;SDS011;15317;50.360;8.726;2023-06-10T04:51:25;10.03;;;9.33;;
27983;SDS011;15317;50.360;8.726;2023-06-10T04:56:30;10.73;;;9.87;;
27983;SDS011;15317;50.360;8.726;2023-06-10T05:01:33;10.40;;;9.63;;
27983;SDS011;15317;50.360;8.726;2023-06-10T05:06:37;10.20;;;9.30;;
27983;SDS011;15317;50.360;8.726;2023-06-10T05:11:41;10.43;;;9.57;;
27983;SDS011;15317;50.360;8.726;2023-06-10T05:16:44;10.27;;;9.47;;
27983;SDS011;15317;50.360;8.726;2023-06-10T05:21:48;10.83;;;10.03;;
27983;SDS011;15317;50.360;8.726;2023-06-10T05:26:52;10.40;;;9.60;;
27983;SDS011;15317;50.360;8.726;2023-06-10T05:31:55;10.73;;;9.87;;
27983;SDS011;15317;50.360;8.726;2023-06-10T05:37:02;10.87;;;10.07;;
27983;SDS011;15317;50.360;8.726;2023-06-10T05:42:07;10.30;;;9.50;;
27983;SDS011;15317;50.360;8.726;2023-06-10T05:47:12;11.53;;;10.70;;
27983;SDS011;15317;50.360;8.726;2023-06-10T05:52:15;11.40;;;10.40;;
27983;SDS011;15317;50.360;8.726;2023-06-10T05:57:19;12.23;;;11.13;;
27983;SDS011;15317;50.360;8.726;2023-06-10T06:02:23;10.70;;;9.87;;
27983;SDS011;15317;50.360;8.726;2023-06-10T06:07:27;11.73;;;10.53;;
27983;SDS011;15317;50.360;8.726;2023-06-10T06:12:31;10.43;;;9.57;;
27983;SDS011;15317;50.360;8.726;2023-06-10T06:17:35;10.83;;;10.03;;
27983;SDS011;15317;50.360;8.726;2023-06-10T06:22:38;10.13;;;9.23;;
27983;SDS011;15317;50.360;8.726;2023-06-10T06:27:43;10.67;;;9.60;;
27983;SDS011;15317;50.360;8.726;2023-06-10T06:32:47;9.77;;;8.77;;
27983;SDS011;15317;50.360;8.726;2023-06-10T06:37:50;9.55;;;8.85;;
27983;SDS011;15317;50.360;8.726;2023-06-10T06:42:55;8.43;;;7.70;;
27983;SDS011;15317;50.360;8.726;2023-06-10T06:47:58;9.13;;;8.32;;
27983;SDS011;15317;50.360;8.726;2023-06-10T06:53:01;8.48;;;7.88;;
27983;SDS011;15317;50.360;8.726;2023-06-10T06:58:06;8.35;;;7.60;;
27983;SDS011;15317;50.360;8.726;2023-06-10T07:03:09;8.55;;;7.85;;
27983;SDS011;15317;50.360;8.726;2023-06-10T07:08:13;8.38;;;7.65;;
27983;SDS011;15317;50.360;8.726;2023-06-10T07:13:17;7.60;;;7.00;;
27983;SDS011;15317;50.360;8.726;2023-06-10T07:18:21;8.27;;;7.68;;
27983;SDS011;15317;50.360;8.726;2023-06-10T07:23:24;8.07;;;7.32;;
27983;SDS011;15317;50.360;8.726;2023-06-10T07:28:28;8.00;;;7.25;;
27983;SDS011;15317;50.360;8.726;2023-06-10T07:33:32;7.88;;;7.18;;
27983;SDS011;15317;50.360;8.726;2023-06-10T07:38:35;8.15;;;7.15;;
27983;SDS011;15317;50.360;8.726;2023-06-10T07:43:39;9.93;;;7.75;;
27983;SDS011;15317;50.360;8.726;2023-06-10T07:48:43;8.38;;;7.50;;
27983;SDS011;15317;50.360;8.726;2023-06-10T07:53:46;9.82;;;8.48;;
27983;SDS011;15317;50.360;8.726;2023-06-10T07:58:50;7.90;;;7.10;;
27983;SDS011;15317;50.360;8.726;2023-06-10T08:03:53;8.60;;;7.95;;
27983;SDS011;15317;50.360;8.726;2023-06-10T08:08:57;7.90;;;7.28;;
27983;SDS011;15317;50.360;8.726;2023-06-10T08:14:01;7.35;;;6.75;;
27983;SDS011;15317;50.360;8.726;2023-06-10T08:19:04;8.02;;;7.20;;
27983;SDS011;15317;50.360;8.726;2023-06-10T08:24:08;6.95;;;6.35;;
27983;SDS011;15317;50.360;8.726;2023-06-10T08:29:13;7.65;;;6.60;;
27983;SDS011;15317;50.360;8.726;2023-06-10T08:34:16;7.20;;;6.50;;
27983;SDS011;15317;50.360;8.726;2023-06-10T08:39:20;6.82;;;6.25;;
27983;SDS011;15317;50.360;8.726;2023-06-10T08:44:26;7.28;;;6.70;;
27983;SDS011;15317;50.360;8.726;2023-06-10T08:49:31;6.97;;;6.38;;
27983;SDS011;15317;50.360;8.726;2023-06-10T08:54:41;7.50;;;6.60;;
27983;SDS011;15317;50.360;8.726;2023-06-10T08:59:47;6.88;;;6.13;;
27983;SDS011;15317;50.360;8.726;2023-06-10T09:04:51;7.15;;;6.47;;
27983;SDS011;15317;50.360;8.726;2023-06-10T09:09:55;6.50;;;5.75;;
27983;SDS011;15317;50.360;8.726;2023-06-10T09:15:00;6.97;;;6.38;;
27983;SDS011;15317;50.360;8.726;2023-06-10T09:20:05;8.90;;;6.35;;
27983;SDS011;15317;50.360;8.726;2023-06-10T09:25:12;8.38;;;6.10;;
27983;SDS011;15317;50.360;8.726;2023-06-10T09:30:27;6.57;;;5.97;;
27983;SDS011;15317;50.360;8.726;2023-06-10T09:35:31;6.47;;;5.97;;
27983;SDS011;15317;50.360;8.726;2023-06-10T09:40:35;6.55;;;5.95;;
27983;SDS011;15317;50.360;8.726;2023-06-10T09:45:53;7.10;;;5.80;;
27983;SDS011;15317;50.360;8.726;2023-06-10T09:50:59;6.70;;;6.10;;
27983;SDS011;15317;50.360;8.726;2023-06-10T09:56:02;6.72;;;6.22;;
27983;SDS011;15317;50.360;8.726;2023-06-10T10:01:07;5.97;;;5.57;;
27983;SDS011;15317;50.360;8.726;2023-06-10T10:06:12;6.80;;;5.70;;
27983;SDS011;15317;50.360;8.726;2023-06-10T10:11:16;6.13;;;5.60;;
27983;SDS011;15317;50.360;8.726;2023-06-10T10:16:23;6.00;;;5.47;;
27983;SDS011;15317;50.360;8.726;2023-06-10T10:21:34;6.30;;;5.60;;
27983;SDS011;15317;50.360;8.726;2023-06-10T10:26:40;5.80;;;5.30;;
27983;SDS011;15317;50.360;8.726;2023-06-10T10:31:46;5.15;;;4.65;;
27983;SDS011;15317;50.360;8.726;2023-06-10T10:36:53;4.72;;;4.18;;
27983;SDS011;15317;50.360;8.726;2023-06-10T10:41:57;5.75;;;4.70;;
27983;SDS011;15317;50.360;8.726;2023-06-10T10:47:03;5.03;;;4.63;;
27983;SDS011;15317;50.360;8.726;2023-06-10T10:52:11;4.88;;;4.38;;
27983;SDS011;15317;50.360;8.726;2023-06-10T10:57:15;5.57;;;4.95;;
27983;SDS011;15317;50.360;8.726;2023-06-10T11:02:33;4.95;;;4.47;;
27983;SDS011;15317;50.360;8.726;2023-06-10T11:07:51;4.93;;;4.57;;
27983;SDS011;15317;50.360;8.726;2023-06-10T11:12:56;8.23;;;4.68;;
27983;SDS011;15317;50.360;8.726;2023-06-10T11:18:07;4.75;;;4.40;;
27983;SDS011;15317;50.360;8.726;2023-06-10T11:23:34;4.85;;;4.45;;
27983;SDS011;15317;50.360;8.726;2023-06-10T11:28:42;4.47;;;4.18;;
27983;SDS011;15317;50.360;8.726;2023-06-10T11:34:06;5.25;;;4.82;;
27983;SDS011;15317;50.360;8.726;2023-06-10T11:39:09;4.85;;;4.38;;
27983;SDS011;15317;50.360;8.726;2023-06-10T11:44:13;5.13;;;4.70;;
27983;SDS011;15317;50.360;8.726;2023-06-10T11:49:22;4.95;;;4.60;;
27983;SDS011;15317;50.360;8.726;2023-06-10T11:54:27;5.15;;;4.70;;
27983;SDS011;15317;50.360;8.726;2023-06-10T11:59:30;5.07;;;4.72;;
27983;SDS011;15317;50.360;8.726;2023-06-10T12:04:35;4.80;;;4.50;;
27983;SDS011;15317;50.360;8.726;2023-06-10T12:09:38;5.30;;;4.90;;
27983;SDS011;15317;50.360;8.726;2023-06-10T12:14:52;5.28;;;4.78;;
27983;SDS011;15317;50.360;8.726;2023-06-10T12:20:00;5.57;;;4.97;;
27983;SDS011;15317;50.360;8.726;2023-06-10T12:25:06;5.68;;;4.97;;
27983;SDS011;15317;50.360;8.726;2023-06-10T12:30:10;7.32;;;5.32;;
27983;SDS011;15317;50.360;8.726;2023-06-10T12:35:24;5.75;;;5.30;;
27983;SDS011;15317;50.360;8.726;2023-06-10T12:40:28;6.00;;;5.38;;
27983;SDS011;15317;50.360;8.726;2023-06-10T12:45:34;6.10;;;5.20;;
27983;SDS011;15317;50.360;8.726;2023-06-10T12:50:40;5.97;;;5.50;;
27983;SDS011;15317;50.360;8.726;2023-06-10T12:55:45;5.65;;;5.30;;
27983;SDS011;15317;50.360;8.726;2023-06-10T13:00:49;6.22;;;5.72;;
27983;SDS011;15317;50.360;8.726;2023-06-10T13:05:55;5.93;;;5.43;;
27983;SDS011;15317;50.360;8.726;2023-06-10T13:10:59;38.92;;;7.40;;
27983;SDS011;15317;50.360;8.726;2023-06-10T13:16:02;11.73;;;6.75;;
27983;SDS011;15317;50.360;8.726;2023-06-10T13:21:06;6.00;;;5.50;;
27983;SDS011;15317;50.360;8.726;2023-06-10T13:26:10;8.60;;;5.50;;
27983;SDS011;15317;50.360;8.726;2023-06-10T13:31:13;5.40;;;4.90;;
27983;SDS011;15317;50.360;8.726;2023-06-10T13:36:18;23.38;;;6.40;;
27983;SDS011;15317;50.360;8.726;2023-06-10T13:41:21;8.85;;;5.72;;
27983;SDS011;15317;50.360;8.726;2023-06-10T13:46:24;5.93;;;5.10;;
27983;SDS011;15317;50.360;8.726;2023-06-10T13:51:29;23.20;;;6.80;;
27983;SDS011;15317;50.360;8.726;2023-06-10T13:56:32;8.60;;;5.25;;
27983;SDS011;15317;50.360;8.726;2023-06-10T14:01:39;26.67;;;7.55;;
27983;SDS011;15317;50.360;8.726;2023-06-10T14:06:45;15.82;;;9.00;;
27983;SDS011;15317;50.360;8.726;2023-06-10T14:11:50;5.38;;;4.88;;
27983;SDS011;15317;50.360;8.726;2023-06-10T14:16:53;5.43;;;4.82;;
27983;SDS011;15317;50.360;8.726;2023-06-10T14:21:58;5.85;;;4.70;;
27983;SDS011;15317;50.360;8.726;2023-06-10T14:27:01;14.68;;;7.43;;
27983;SDS011;15317;50.360;8.726;2023-06-10T14:32:04;12.52;;;10.32;;
27983;SDS011;15317;50.360;8.726;2023-06-10T14:37:11;5.28;;;4.70;;
27983;SDS011;15317;50.360;8.726;2023-06-10T14:42:15;14.73;;;8.90;;
27983;SDS011;15317;50.360;8.726;2023-06-10T14:47:18;19.02;;;10.68;;
27983;SDS011;15317;50.360;8.726;2023-06-10T14:52:22;35.17;;;18.90;;
27983;SDS011;15317;50.360;8.726;2023-06-10T14:57:25;12.43;;;8.95;;
27983;SDS011;15317;50.360;8.726;2023-06-10T15:02:28;58.50;;;32.40;;
27983;SDS011;15317;50.360;8.726;2023-06-10T15:07:33;35.78;;;17.52;;
27983;SDS011;15317;50.360;8.726;2023-06-10T15:12:36;7.53;;;6.55;;
27983;SDS011;15317;50.360;8.726;2023-06-10T15:17:39;8.27;;;6.20;;
27983;SDS011;15317;50.360;8.726;2023-06-10T15:22:44;6.10;;;5.60;;
27983;SDS011;15317;50.360;8.726;2023-06-10T15:27:47;6.13;;;5.20;;
27983;SDS011;15317;50.360;8.726;2023-06-10T15:32:50;6.00;;;5.50;;
27983;SDS011;15317;50.360;8.726;2023-06-10T15:37:55;6.10;;;5.70;;
27983;SDS011;15317;50.360;8.726;2023-06-10T15:42:58;5.35;;;5.03;;
27983;SDS011;15317;50.360;8.726;2023-06-10T15:48:01;5.50;;;5.00;;
27983;SDS011;15317;50.360;8.726;2023-06-10T15:53:06;5.63;;;5.05;;
27983;SDS011;15317;50.360;8.726;2023-06-10T15:58:09;6.07;;;5.45;;
27983;SDS011;15317;50.360;8.726;2023-06-10T16:03:12;5.90;;;5.40;;
27983;SDS011;15317;50.360;8.726;2023-06-10T16:08:17;8.18;;;5.22;;
27983;SDS011;15317;50.360;8.726;2023-06-10T16:13:20;5.45;;;5.05;;
27983;SDS011;15317;50.360;8.726;2023-06-10T16:18:23;5.43;;;4.93;;
27983;SDS011;15317;50.360;8.726;2023-06-10T16:23:28;5.57;;;5.07;;
27983;SDS011;15317;50.360;8.726;2023-06-10T16:28:31;5.20;;;4.80;;
27983;SDS011;15317;50.360;8.726;2023-06-10T16:33:34;6.18;;;5.32;;
27983;SDS011;15317;50.360;8.726;2023-06-10T16:38:39;6.05;;;5.50;;
27983;SDS011;15317;50.360;8.726;2023-06-10T16:43:43;5.80;;;5.28;;
27983;SDS011;15317;50.360;8.726;2023-06-10T16:48:46;5.93;;;5.53;;
27983;SDS011;15317;50.360;8.726;2023-06-10T16:53:50;6.65;;;6.15;;
27983;SDS011;15317;50.360;8.726;2023-06-10T16:58:53;6.65;;;6.07;;
27983;SDS011;15317;50.360;8.726;2023-06-10T17:03:57;6.57;;;5.97;;
27983;SDS011;15317;50.360;8.726;2023-06-10T17:09:01;6.95;;;6.32;;
27983;SDS011;15317;50.360;8.726;2023-06-10T17:14:05;8.45;;;6.40;;
27983;SDS011;15317;50.360;8.726;2023-06-10T17:19:08;6.93;;;6.43;;
27983;SDS011;15317;50.360;8.726;2023-06-10T17:24:13;7.20;;;6.45;;
27983;SDS011;15317;50.360;8.726;2023-06-10T17:29:16;7.60;;;6.95;;
27983;SDS011;15317;50.360;8.726;2023-06-10T17:34:20;7.25;;;6.70;;
27983;SDS011;15317;50.360;8.726;2023-06-10T17:39:24;5.38;;;4.93;;
27983;SDS011;15317;50.360;8.726;2023-06-10T17:44:27;5.93;;;5.60;;
27983;SDS011;15317;50.360;8.726;2023-06-10T17:49:32;6.63;;;6.10;;
27983;SDS011;15317;50.360;8.726;2023-06-10T17:54:37;6.50;;;5.93;;
27983;SDS011;15317;50.360;8.726;2023-06-10T17:59:40;7.00;;;6.40;;
27983;SDS011;15317;50.360;8.726;2023-06-10T18:04:44;6.65;;;6.25;;
27983;SDS011;15317;50.360;8.726;2023-06-10T18:09:48;6.63;;;6.18;;
27983;SDS011;15317;50.360;8.726;2023-06-10T18:14:51;6.55;;;6.05;;
27983;SDS011;15317;50.360;8.726;2023-06-10T18:19:55;7.13;;;6.53;;
27983;SDS011;15317;50.360;8.726;2023-06-10T18:24:59;6.93;;;6.45;;
27983;SDS011;15317;50.360;8.726;2023-06-10T18:30:06;6.70;;;6.30;;
27983;SDS011;15317;50.360;8.726;2023-06-10T18:35:10;7.18;;;6.68;;
27983;SDS011;15317;50.360;8.726;2023-06-10T18:40:15;7.25;;;6.75;;
27983;SDS011;15317;50.360;8.726;2023-06-10T18:45:19;7.88;;;7.38;;
27983;SDS011;15317;50.360;8.726;2023-06-10T18:50:25;7.30;;;6.80;;
27983;SDS011;15317;50.360;8.726;2023-06-10T18:55:29;8.25;;;7.55;;
27983;SDS011;15317;50.360;8.726;2023-06-10T19:00:37;8.23;;;7.63;;
27983;SDS011;15317;50.360;8.726;2023-06-10T19:05:40;7.75;;;7.15;;
27983;SDS011;15317;50.360;8.726;2023-06-10T19:10:44;8.05;;;7.43;;
27983;SDS011;15317;50.360;8.726;2023-06-10T19:15:48;8.00;;;7.30;;
27983;SDS011;15317;50.360;8.726;2023-06-10T19:20:51;8.52;;;8.00;;
27983;SDS011;15317;50.360;8.726;2023-06-10T19:25:55;8.57;;;7.88;;
27983;SDS011;15317;50.360;8.726;2023-06-10T19:31:01;8.77;;;8.07;;
27983;SDS011;15317;50.360;8.726;2023-06-10T19:36:04;9.70;;;9.00;;
27983;SDS011;15317;50.360;8.726;2023-06-10T19:41:09;9.50;;;8.90;;
27983;SDS011;15317;50.360;8.726;2023-06-10T19:46:12;10.57;;;8.85;;
27983;SDS011;15317;50.360;8.726;2023-06-10T19:51:19;8.98;;;8.38;;
27983;SDS011;15317;50.360;8.726;2023-06-10T19:56:24;9.05;;;8.45;;
27983;SDS011;15317;50.360;8.726;2023-06-10T20:01:27;9.80;;;9.00;;
27983;SDS011;15317;50.360;8.726;2023-06-10T20:06:30;9.57;;;8.82;;
27983;SDS011;15317;50.360;8.726;2023-06-10T20:11:35;9.85;;;8.90;;
27983;SDS011;15317;50.360;8.726;2023-06-10T20:16:38;9.45;;;8.82;;
27983;SDS011;15317;50.360;8.726;2023-06-10T20:21:42;8.77;;;8.27;;
27983;SDS011;15317;50.360;8.726;2023-06-10T20:26:46;9.00;;;8.40;;
27983;SDS011;15317;50.360;8.726;2023-06-10T20:31:49;9.27;;;8.57;;
27983;SDS011;15317;50.360;8.726;2023-06-10T20:36:52;9.00;;;8.40;;
27983;SDS011;15317;50.360;8.726;2023-06-10T20:41:58;9.57;;;8.93;;
27983;SDS011;15317;50.360;8.726;2023-06-10T20:47:01;9.35;;;8.75;;
27983;SDS011;15317;50.360;8.726;2023-06-10T20:52:05;10.07;;;9.13;;
27983;SDS011;15317;50.360;8.726;2023-06-10T20:57:10;11.23;;;10.10;;
27983;SDS011;15317;50.360;8.726;2023-06-10T21:02:13;10.03;;;9.33;;
27983;SDS011;15317;50.360;8.726;2023-06-10T21:07:16;10.53;;;9.73;;
27983;SDS011;15317;50.360;8.726;2023-06-10T21:12:21;9.83;;;9.23;;
27983;SDS011;15317;50.360;8.726;2023-06-10T21:17:24;10.10;;;9.40;;
27983;SDS011;15317;50.360;8.726;2023-06-10T21:22:27;10.40;;;9.60;;
27983;SDS011;15317;50.360;8.726;2023-06-10T21:27:32;9.67;;;9.00;;
27983;SDS011;15317;50.360;8.726;2023-06-10T21:32:35;9.57;;;8.97;;
27983;SDS011;15317;50.360;8.726;2023-06-10T21:37:38;9.87;;;9.10;;
27983;SDS011;15317;50.360;8.726;2023-06-10T21:42:43;9.33;;;8.73;;
27983;SDS011;15317;50.360;8.726;2023-06-10T21:47:46;9.60;;;9.00;;
27983;SDS011;15317;50.360;8.726;2023-06-10T21:52:49;9.83;;;9.13;;
27983;SDS011;15317;50.360;8.726;2023-06-10T21:57:54;9.00;;;8.40;;
27983;SDS011;15317;50.360;8.726;2023-06-10T22:02:57;9.83;;;9.23;;
27983;SDS011;15317;50.360;8.726;2023-06-10T22:08:01;9.33;;;8.67;;
27983;SDS011;15317;50.360;8.726;2023-06-10T22:13:06;9.40;;;8.70;;
27983;SDS011;15317;50.360;8.726;2023-06-10T22:18:10;9.23;;;8.63;;
27983;SDS011;15317;50.360;8.726;2023-06-10T22:23:17;9.77;;;9.17;;
27983;SDS011;15317;50.360;8.726;2023-06-10T22:28:22;10.00;;;9.30;;
27983;SDS011;15317;50.360;8.726;2023-06-10T22:33:26;10.40;;;9.60;;
27983;SDS011;15317;50.360;8.726;2023-06-10T22:38:29;9.60;;;9.00;;
27983;SDS011;15317;50.360;8.726;2023-06-10T22:43:34;10.07;;;9.40;;
27983;SDS011;15317;50.360;8.726;2023-06-10T22:48:37;10.50;;;9.60;;
27983;SDS011;15317;50.360;8.726;2023-06-10T22:53:40;10.87;;;10.17;;
27983;SDS011;15317;50.360;8.726;2023-06-10T22:58:44;10.83;;;10.00;;
27983;SDS011;15317;50.360;8.726;2023-06-10T23:03:48;11.27;;;10.37;;
27983;SDS011;15317;50.360;8.726;2023-06-10T23:08:51;10.90;;;10.10;;
27983;SDS011;15317;50.360;8.726;2023-06-10T23:13:56;11.00;;;10.20;;
27983;SDS011;15317;50.360;8.726;2023-06-10T23:19:00;11.73;;;10.93;;
27983;SDS011;15317;50.360;8.726;2023-06-10T23:24:04;11.63;;;10.73;;
27983;SDS011;15317;50.360;8.726;2023-06-10T23:29:09;11.50;;;10.63;;
27983;SDS011;15317;50.360;8.726;2023-06-10T23:34:12;11.90;;;10.70;;
27983;SDS011;15317;50.360;8.726;2023-06-10T23:39:15;12.27;;;11.37;;
27983;SDS011;15317;50.360;8.726;2023-06-10T23:44:20;11.67;;;10.63;;
27983;SDS011;15317;50.360;8.726;2023-06-10T23:49:23;12.27;;;11.40;;
27983;SDS011;15317;50.360;8.726;2023-06-10T23:54:27;12.40;;;11.40;;
27983;SDS011;15317;50.360;8.726;2023-06-10T23:59:32;12.20;;;11.40;;
